createdAt,value
2023-04-23T00:02:00.946Z,15.85
2023-04-23T00:04:29.122Z,15.87
2023-04-23T00:06:56.096Z,15.88
2023-04-23T00:09:24.059Z,15.83
2023-04-23T00:11:51.068Z,15.82
2023-04-23T00:14:17.965Z,15.78
2023-04-23T00:16:45.123Z,15.79
2023-04-23T00:19:11.745Z,15.68
2023-04-23T00:21:38.606Z,15.72
2023-04-23T00:24:05.776Z,15.70
2023-04-23T00:26:32.525Z,15.69
2023-04-23T00:28:59.180Z,15.71
2023-04-23T00:31:27.393Z,15.62
2023-04-23T00:33:54.285Z,15.56
2023-04-23T00:36:21.051Z,15.50
2023-04-23T00:38:48.272Z,15.56
2023-04-23T00:41:15.513Z,15.52
2023-04-23T00:43:42.386Z,15.50
2023-04-23T00:46:09.388Z,15.42
2023-04-23T00:48:37.723Z,15.35
2023-04-23T00:51:05.889Z,15.33
2023-04-23T00:53:34.987Z,15.31
2023-04-23T00:56:05.698Z,15.27
2023-04-23T00:58:33.105Z,15.25
2023-04-23T01:01:00.251Z,15.26
2023-04-23T01:03:27.702Z,15.24
2023-04-23T01:05:54.772Z,15.25
2023-04-23T01:08:23.623Z,15.13
2023-04-23T01:10:50.925Z,15.14
2023-04-23T01:13:17.698Z,15.20
2023-04-23T01:15:45.762Z,15.23
2023-04-23T01:18:13.380Z,15.18
2023-04-23T01:20:40.428Z,15.16
2023-04-23T01:23:07.336Z,15.15
2023-04-23T01:25:34.923Z,15.16
2023-04-23T01:28:01.842Z,15.09
2023-04-23T01:30:28.798Z,15.08
2023-04-23T01:32:56.922Z,15.10
2023-04-23T01:35:25.153Z,15.10
2023-04-23T01:37:54.209Z,15.06
2023-04-23T01:40:21.609Z,15.10
2023-04-23T01:42:49.367Z,15.02
2023-04-23T01:45:19.799Z,14.95
2023-04-23T01:47:47.839Z,14.98
2023-04-23T01:50:15.189Z,15.04
2023-04-23T01:52:42.748Z,15.02
2023-04-23T01:55:09.694Z,15.10
2023-04-23T01:57:37.160Z,14.94
2023-04-23T02:00:09.540Z,14.91
2023-04-23T02:02:36.325Z,14.95
2023-04-23T02:05:07.002Z,14.90
2023-04-23T02:07:34.688Z,14.87
2023-04-23T02:10:02.385Z,14.83
2023-04-23T02:12:28.986Z,14.87
2023-04-23T02:14:55.741Z,14.83
2023-04-23T02:17:23.264Z,14.83
2023-04-23T02:19:50.628Z,14.79
2023-04-23T02:22:18.022Z,14.78
2023-04-23T02:24:44.835Z,14.71
2023-04-23T02:27:11.644Z,14.69
2023-04-23T02:29:38.307Z,14.69
2023-04-23T02:32:05.097Z,14.55
2023-04-23T02:34:31.820Z,14.66
2023-04-23T02:36:58.767Z,14.63
2023-04-23T02:39:25.802Z,14.60
2023-04-23T02:41:52.380Z,14.60
2023-04-23T02:44:19.111Z,14.56
2023-04-23T02:46:46.511Z,14.47
2023-04-23T02:49:15.023Z,14.50
2023-04-23T02:51:41.905Z,14.48
2023-04-23T02:54:08.520Z,14.41
2023-04-23T02:56:35.600Z,14.34
2023-04-23T02:59:02.387Z,14.38
2023-04-23T03:01:32.428Z,14.44
2023-04-23T03:03:59.505Z,14.44
2023-04-23T03:06:26.789Z,14.43
2023-04-23T03:08:53.481Z,14.32
2023-04-23T03:11:20.044Z,14.38
2023-04-23T03:13:46.655Z,14.38
2023-04-23T03:16:13.375Z,14.30
2023-04-23T03:18:40.390Z,14.32
2023-04-23T03:21:06.985Z,14.30
2023-04-23T03:23:33.552Z,14.29
2023-04-23T03:26:00.218Z,14.27
2023-04-23T03:28:27.048Z,14.18
2023-04-23T03:30:53.796Z,14.23
2023-04-23T03:33:20.497Z,14.31
2023-04-23T03:35:47.164Z,14.24
2023-04-23T03:38:13.863Z,14.13
2023-04-23T03:40:40.621Z,14.32
2023-04-23T03:43:07.259Z,14.17
2023-04-23T03:45:34.051Z,14.26
2023-04-23T03:48:00.762Z,14.15
2023-04-23T03:50:27.355Z,14.16
2023-04-23T03:52:54.014Z,14.11
2023-04-23T03:55:21.076Z,14.11
2023-04-23T03:57:47.779Z,14.20
2023-04-23T04:00:14.842Z,14.16
2023-04-23T04:02:41.840Z,14.11
2023-04-23T04:05:11.784Z,14.12
2023-04-23T04:07:38.851Z,14.10
2023-04-23T04:10:07.917Z,14.15
2023-04-23T04:12:34.708Z,14.13
2023-04-23T04:15:03.162Z,14.01
2023-04-23T04:17:29.917Z,13.96
2023-04-23T04:19:56.811Z,13.85
2023-04-23T04:22:24.321Z,13.91
2023-04-23T04:24:52.268Z,13.94
2023-04-23T04:27:19.131Z,13.74
2023-04-23T04:29:45.821Z,13.65
2023-04-23T04:32:13.997Z,13.54
2023-04-23T04:34:41.022Z,13.47
2023-04-23T04:37:08.173Z,13.42
2023-04-23T04:39:34.918Z,13.43
2023-04-23T04:42:03.262Z,13.36
2023-04-23T04:44:30.821Z,13.29
2023-04-23T04:46:57.638Z,13.30
2023-04-23T04:49:24.466Z,13.23
2023-04-23T04:51:51.546Z,13.18
2023-04-23T04:54:18.548Z,13.20
2023-04-23T04:56:45.508Z,13.13
2023-04-23T04:59:12.458Z,13.11
2023-04-23T05:01:39.248Z,13.15
2023-04-23T05:04:06.615Z,13.10
2023-04-23T05:06:33.534Z,13.14
2023-04-23T05:09:00.313Z,13.17
2023-04-23T05:11:27.134Z,13.17
2023-04-23T05:13:53.858Z,13.22
2023-04-23T05:16:20.562Z,13.10
2023-04-23T05:18:47.282Z,13.23
2023-04-23T05:21:16.250Z,13.18
2023-04-23T05:23:42.933Z,13.14
2023-04-23T05:26:09.574Z,13.22
2023-04-23T05:28:36.520Z,13.18
2023-04-23T05:31:03.511Z,13.24
2023-04-23T05:33:39.101Z,13.23
2023-04-23T05:36:13.472Z,13.31
2023-04-23T05:38:40.560Z,13.31
2023-04-23T05:41:07.293Z,13.28
2023-04-23T05:43:33.998Z,13.25
2023-04-23T05:46:01.100Z,13.26
2023-04-23T05:48:27.934Z,13.26
2023-04-23T05:50:54.720Z,13.12
2023-04-23T05:53:21.560Z,13.06
2023-04-23T05:55:48.279Z,13.11
2023-04-23T05:58:15.846Z,13.18
2023-04-23T06:00:43.008Z,13.05
2023-04-23T06:03:09.784Z,13.02
2023-04-23T06:05:38.330Z,12.48
2023-04-23T06:08:05.262Z,11.93
2023-04-23T06:10:32.421Z,11.83
2023-04-23T06:12:59.258Z,11.76
2023-04-23T06:15:27.326Z,11.67
2023-04-23T06:17:54.671Z,11.45
2023-04-23T06:20:21.500Z,11.50
2023-04-23T06:22:48.149Z,11.40
2023-04-23T06:25:14.849Z,11.48
2023-04-23T06:27:41.624Z,11.47
2023-04-23T06:30:08.804Z,11.54
2023-04-23T06:32:35.620Z,11.63
2023-04-23T06:35:02.702Z,11.72
2023-04-23T06:37:31.958Z,11.71
2023-04-23T06:39:59.654Z,11.77
2023-04-23T06:42:26.703Z,11.85
2023-04-23T06:44:53.532Z,11.87
2023-04-23T06:47:20.359Z,11.94
2023-04-23T06:49:47.051Z,12.05
2023-04-23T06:52:13.768Z,12.24
2023-04-23T06:54:40.722Z,12.41
2023-04-23T06:57:07.893Z,12.54
2023-04-23T06:59:34.810Z,12.56
2023-04-23T07:02:01.648Z,12.72
2023-04-23T07:04:28.504Z,12.85
2023-04-23T07:06:55.438Z,12.91
2023-04-23T07:09:23.361Z,12.99
2023-04-23T07:11:50.334Z,13.01
2023-04-23T07:14:17.104Z,13.04
2023-04-23T07:16:43.852Z,13.11
2023-04-23T07:19:10.544Z,13.17
2023-04-23T07:21:37.241Z,13.31
2023-04-23T07:24:07.464Z,13.40
2023-04-23T07:26:34.953Z,13.34
2023-04-23T07:29:02.356Z,13.31
2023-04-23T07:31:29.060Z,13.45
2023-04-23T07:33:56.674Z,13.59
2023-04-23T07:36:23.757Z,13.75
2023-04-23T07:38:51.307Z,13.78
2023-04-23T07:41:18.513Z,13.78
2023-04-23T07:43:45.363Z,13.89
2023-04-23T07:46:12.333Z,14.03
2023-04-23T07:48:39.176Z,14.27
2023-04-23T07:51:06.853Z,14.25
2023-04-23T07:53:34.094Z,14.37
2023-04-23T07:56:01.546Z,14.43
2023-04-23T07:58:28.560Z,14.49
2023-04-23T08:00:55.386Z,14.76
2023-04-23T08:03:23.062Z,15.51
2023-04-23T08:05:50.083Z,15.79
2023-04-23T08:08:16.832Z,15.64
2023-04-23T08:10:43.523Z,15.81
2023-04-23T08:13:10.330Z,16.74
2023-04-23T08:15:37.370Z,17.17
2023-04-23T08:18:04.929Z,17.69
2023-04-23T08:20:32.662Z,18.01
2023-04-23T08:22:59.954Z,18.62
2023-04-23T08:25:26.717Z,18.82
2023-04-23T08:27:53.480Z,18.47
2023-04-23T08:30:20.793Z,18.63
2023-04-23T08:32:51.150Z,19.08
2023-04-23T08:35:20.632Z,18.79
2023-04-23T08:37:47.569Z,19.17
2023-04-23T08:40:14.825Z,19.31
2023-04-23T08:42:55.954Z,19.01
2023-04-23T08:45:26.648Z,19.50
2023-04-23T08:48:01.575Z,19.96
2023-04-23T08:50:30.074Z,20.18
2023-04-23T08:52:58.696Z,20.10
2023-04-23T08:55:26.302Z,19.87
2023-04-23T08:57:53.488Z,19.95
2023-04-23T09:00:23.378Z,20.21
2023-04-23T09:02:51.015Z,20.32
2023-04-23T09:05:18.340Z,20.19
2023-04-23T09:07:45.874Z,20.07
2023-04-23T09:10:16.051Z,20.39
2023-04-23T09:12:45.812Z,20.69
2023-04-23T09:15:13.773Z,20.67
2023-04-23T09:17:44.255Z,20.53
2023-04-23T09:20:12.942Z,20.79
2023-04-23T09:22:46.188Z,21.03
2023-04-23T09:25:16.830Z,20.46
2023-04-23T09:27:43.940Z,20.92
2023-04-23T09:30:12.221Z,21.08
2023-04-23T09:32:41.763Z,21.39
2023-04-23T09:35:10.910Z,21.36
2023-04-23T09:37:42.181Z,21.09
2023-04-23T09:40:14.044Z,21.41
2023-04-23T09:42:43.744Z,21.59
2023-04-23T09:45:13.266Z,21.45
2023-04-23T09:47:43.163Z,21.73
2023-04-23T09:50:55.836Z,21.47
2023-04-23T09:53:22.777Z,21.93
2023-04-23T09:55:53.049Z,21.88
2023-04-23T09:58:19.820Z,22.19
2023-04-23T10:00:48.017Z,22.53
2023-04-23T10:03:14.981Z,22.60
2023-04-23T10:08:14.585Z,23.21
2023-04-23T10:10:54.969Z,22.51
2023-04-23T10:13:28.789Z,21.75
2023-04-23T10:15:59.102Z,21.07
2023-04-23T10:18:33.554Z,21.53
2023-04-23T10:21:02.791Z,21.71
2023-04-23T10:23:30.309Z,20.85
2023-04-23T10:25:59.510Z,20.03
2023-04-23T10:28:32.045Z,20.29
2023-04-23T10:30:59.822Z,20.88
2023-04-23T10:33:31.816Z,21.23
2023-04-23T10:36:02.414Z,20.95
2023-04-23T10:38:29.697Z,20.65
2023-04-23T10:40:58.891Z,20.93
2023-04-23T10:43:26.164Z,21.44
2023-04-23T10:45:53.939Z,22.49
2023-04-23T10:48:20.962Z,23.33
2023-04-23T10:51:00.338Z,23.24
2023-04-23T10:53:36.378Z,23.19
2023-04-23T10:56:10.226Z,23.80
2023-04-23T10:58:50.582Z,24.55
2023-04-23T11:01:18.705Z,24.76
2023-04-23T11:03:45.998Z,23.90
2023-04-23T11:06:15.888Z,23.72
2023-04-23T11:08:54.189Z,23.43
2023-04-23T11:11:39.961Z,22.96
2023-04-23T11:14:16.340Z,23.14
2023-04-23T11:16:43.158Z,22.88
2023-04-23T11:19:12.985Z,22.17
2023-04-23T11:21:58.987Z,23.00
2023-04-23T11:24:33.713Z,23.17
2023-04-23T11:27:01.505Z,22.95
2023-04-23T11:29:29.107Z,22.74
2023-04-23T11:34:26.505Z,24.03
2023-04-23T11:36:54.759Z,23.92
2023-04-23T11:39:24.305Z,24.05
2023-04-23T11:41:52.513Z,24.13
2023-04-23T11:44:23.066Z,23.93
2023-04-23T11:46:50.692Z,24.69
2023-04-23T11:49:19.005Z,25.04
2023-04-23T11:51:46.560Z,24.89
2023-04-23T11:54:14.871Z,24.39
2023-04-23T11:56:42.109Z,24.04
2023-04-23T11:59:08.920Z,23.80
2023-04-23T12:01:51.614Z,24.55
2023-04-23T12:04:24.150Z,24.47
2023-04-23T12:06:52.399Z,24.74
2023-04-23T12:09:21.243Z,24.23
2023-04-23T12:11:50.795Z,24.03
2023-04-23T12:14:18.625Z,23.60
2023-04-23T12:17:02.258Z,23.88
2023-04-23T12:19:31.577Z,24.28
2023-04-23T12:22:22.710Z,24.10
2023-04-23T12:27:42.698Z,22.34
2023-04-23T12:30:10.163Z,22.25
2023-04-23T12:32:38.564Z,21.37
2023-04-23T12:35:06.698Z,21.41
2023-04-23T12:37:37.853Z,21.34
2023-04-23T12:40:07.477Z,21.69
2023-04-23T12:42:35.466Z,22.02
2023-04-23T12:45:07.652Z,22.33
2023-04-23T12:47:34.347Z,21.76
2023-04-23T12:50:01.782Z,21.74
2023-04-23T12:52:29.965Z,22.58
2023-04-23T12:54:59.191Z,23.13
2023-04-23T12:57:28.116Z,23.31
2023-04-23T12:59:55.743Z,23.86
2023-04-23T13:02:23.911Z,23.59
2023-04-23T13:04:53.428Z,24.10
2023-04-23T13:07:20.210Z,24.08
2023-04-23T13:09:47.074Z,24.14
2023-04-23T13:12:13.951Z,24.11
2023-04-23T13:14:42.069Z,23.49
2023-04-23T13:17:08.921Z,22.91
2023-04-23T13:19:38.140Z,22.72
2023-04-23T13:22:05.013Z,22.67
2023-04-23T13:24:32.125Z,22.55
2023-04-23T13:26:58.977Z,22.43
2023-04-23T13:29:27.566Z,22.32
2023-04-23T13:31:58.866Z,21.68
2023-04-23T13:34:26.064Z,21.36
2023-04-23T13:36:53.591Z,21.12
2023-04-23T13:39:20.511Z,21.43
2023-04-23T13:41:59.092Z,21.43
2023-04-23T13:44:33.358Z,21.44
2023-04-23T13:47:00.262Z,21.27
2023-04-23T13:49:27.258Z,21.05
2023-04-23T13:51:59.059Z,20.86
2023-04-23T13:54:29.596Z,20.86
2023-04-23T13:56:56.539Z,21.11
2023-04-23T13:59:24.637Z,21.20
2023-04-23T14:01:51.455Z,21.42
2023-04-23T14:04:19.306Z,21.77
2023-04-23T14:06:46.332Z,21.56
2023-04-23T14:09:13.023Z,21.65
2023-04-23T14:11:40.692Z,20.56
2023-04-23T14:14:08.082Z,20.79
2023-04-23T14:16:35.613Z,20.93
2023-04-23T14:19:02.417Z,20.55
2023-04-23T14:21:29.349Z,20.66
2023-04-23T14:24:02.008Z,21.06
2023-04-23T14:26:47.303Z,21.17
2023-04-23T14:29:40.595Z,21.17
2023-04-23T14:32:07.752Z,21.21
2023-04-23T14:34:35.915Z,21.40
2023-04-23T14:37:03.758Z,21.38
2023-04-23T14:39:30.859Z,20.93
2023-04-23T14:41:57.575Z,20.57
2023-04-23T14:44:26.473Z,20.77
2023-04-23T14:46:54.209Z,20.39
2023-04-23T14:49:21.259Z,20.58
2023-04-23T14:51:54.624Z,20.71
2023-04-23T14:54:22.294Z,20.19
2023-04-23T14:56:49.039Z,20.29
2023-04-23T14:59:15.763Z,20.49
2023-04-23T15:01:43.163Z,20.48
2023-04-23T15:04:13.134Z,20.72
2023-04-23T15:06:42.909Z,20.70
2023-04-23T15:09:09.643Z,20.57
2023-04-23T15:11:39.013Z,20.38
2023-04-23T15:14:05.688Z,20.13
2023-04-23T15:19:06.736Z,19.79
2023-04-23T15:21:33.628Z,19.75
2023-04-23T15:24:00.275Z,19.67
2023-04-23T15:26:27.608Z,19.60
2023-04-23T15:28:54.288Z,19.41
2023-04-23T15:31:21.111Z,19.28
2023-04-23T15:33:48.390Z,19.39
2023-04-23T15:36:15.318Z,19.60
2023-04-23T15:38:42.194Z,19.76
2023-04-23T15:41:08.871Z,20.00
2023-04-23T15:43:35.532Z,20.05
2023-04-23T15:46:02.436Z,19.73
2023-04-23T15:48:29.322Z,19.66
2023-04-23T15:50:56.028Z,19.54
2023-04-23T15:53:24.606Z,19.55
2023-04-23T15:55:52.045Z,19.65
2023-04-23T15:58:19.873Z,19.51
2023-04-23T16:00:47.008Z,19.54
2023-04-23T16:03:15.283Z,19.31
2023-04-23T16:05:42.658Z,19.23
2023-04-23T16:08:09.640Z,18.96
2023-04-23T16:10:38.817Z,18.67
2023-04-23T16:13:06.497Z,18.69
2023-04-23T16:15:33.798Z,18.56
2023-04-23T16:18:00.887Z,18.46
2023-04-23T16:20:28.647Z,18.59
2023-04-23T16:22:56.095Z,18.64
2023-04-23T16:25:22.953Z,18.54
2023-04-23T16:27:50.412Z,18.48
2023-04-23T16:30:17.150Z,18.50
2023-04-23T16:32:44.004Z,18.48
2023-04-23T16:35:10.789Z,18.33
2023-04-23T16:37:37.497Z,18.20
2023-04-23T16:40:04.726Z,18.21
2023-04-23T16:42:31.680Z,18.11
2023-04-23T16:44:58.296Z,18.01
2023-04-23T16:47:25.196Z,17.97
2023-04-23T16:49:51.951Z,17.88
2023-04-23T16:52:18.634Z,17.82
2023-04-23T16:54:45.414Z,17.77
2023-04-23T16:57:12.340Z,17.77
2023-04-23T16:59:40.870Z,17.86
2023-04-23T17:02:07.958Z,17.82
2023-04-23T17:04:34.898Z,17.78
2023-04-23T17:07:02.111Z,17.80
2023-04-23T17:09:29.425Z,17.81
2023-04-23T17:11:58.053Z,17.71
2023-04-23T17:14:25.127Z,17.69
2023-04-23T17:16:51.723Z,17.66
2023-04-23T17:19:18.626Z,17.66
2023-04-23T17:21:45.307Z,17.55
2023-04-23T17:24:12.998Z,17.46
2023-04-23T17:26:40.006Z,17.39
2023-04-23T17:29:07.325Z,17.34
2023-04-23T17:31:36.152Z,17.31
2023-04-23T17:34:05.835Z,17.36
2023-04-23T17:36:33.148Z,17.25
2023-04-23T17:38:59.809Z,17.20
2023-04-23T17:41:26.813Z,17.09
2023-04-23T17:43:54.374Z,17.10
2023-04-23T17:46:24.423Z,17.07
2023-04-23T17:48:51.129Z,16.94
2023-04-23T17:51:18.697Z,16.83
2023-04-23T17:53:48.691Z,16.83
2023-04-23T17:56:15.925Z,16.75
2023-04-23T17:58:42.856Z,16.68
2023-04-23T18:01:10.087Z,16.69
2023-04-23T18:03:37.293Z,16.59
2023-04-23T18:06:04.707Z,16.53
2023-04-23T18:08:31.307Z,16.42
2023-04-23T18:10:58.224Z,16.31
2023-04-23T18:13:24.921Z,16.29
2023-04-23T18:15:51.903Z,16.26
2023-04-23T18:18:18.880Z,16.16
2023-04-23T18:20:46.473Z,16.03
2023-04-23T18:23:14.416Z,15.97
2023-04-23T18:25:42.149Z,15.98
2023-04-23T18:28:08.903Z,15.79
2023-04-23T18:30:37.562Z,15.65
2023-04-23T18:33:14.052Z,15.41
2023-04-23T18:35:50.242Z,15.29
2023-04-23T18:38:37.695Z,15.10
2023-04-23T18:41:04.982Z,14.88
2023-04-23T18:43:34.651Z,14.95
2023-04-23T18:46:02.621Z,14.79
2023-04-23T18:48:35.519Z,14.81
2023-04-23T18:51:24.054Z,14.86
2023-04-23T18:53:50.997Z,14.81
2023-04-23T18:56:17.762Z,14.79
2023-04-23T18:58:44.375Z,14.89
2023-04-23T19:01:11.085Z,14.85
2023-04-23T19:03:37.990Z,14.83
2023-04-23T19:06:07.529Z,14.82
2023-04-23T19:08:35.905Z,14.71
2023-04-23T19:11:02.853Z,14.65
2023-04-23T19:13:29.590Z,14.54
2023-04-23T19:15:56.762Z,14.52
2023-04-23T19:18:23.657Z,14.49
2023-04-23T19:20:51.295Z,14.31
2023-04-23T19:23:17.977Z,13.89
2023-04-23T19:25:44.687Z,13.66
2023-04-23T19:28:11.447Z,13.69
2023-04-23T19:30:38.160Z,13.74
2023-04-23T19:33:05.121Z,13.66
2023-04-23T19:35:31.890Z,13.86
2023-04-23T19:37:58.651Z,13.89
2023-04-23T19:40:25.415Z,13.81
2023-04-23T19:42:52.082Z,13.83
2023-04-23T19:45:19.037Z,13.95
2023-04-23T19:47:45.750Z,14.03
2023-04-23T19:50:14.173Z,14.07
2023-04-23T19:52:41.380Z,14.01
2023-04-23T19:55:08.654Z,14.01
2023-04-23T19:57:35.965Z,14.17
2023-04-23T20:00:02.706Z,14.34
2023-04-23T20:02:29.341Z,14.40
2023-04-23T20:04:56.007Z,14.52
2023-04-23T20:07:22.751Z,14.38
2023-04-23T20:09:49.582Z,14.34
2023-04-23T20:12:16.167Z,14.23
2023-04-23T20:14:42.969Z,14.11
2023-04-23T20:17:09.967Z,14.25
2023-04-23T20:19:36.913Z,14.38
2023-04-23T20:22:03.551Z,14.45
2023-04-23T20:24:30.147Z,14.55
2023-04-23T20:26:58.715Z,14.70
2023-04-23T20:29:25.420Z,14.73
2023-04-23T20:31:52.238Z,14.73
2023-04-23T20:34:18.859Z,14.68
2023-04-23T20:36:47.391Z,14.54
2023-04-23T20:39:14.360Z,14.48
2023-04-23T20:41:41.134Z,14.36
2023-04-23T20:44:09.189Z,14.40
2023-04-23T20:46:36.914Z,14.48
2023-04-23T20:49:04.092Z,14.57
2023-04-23T20:51:34.670Z,14.66
2023-04-23T20:54:02.407Z,14.76
2023-04-23T20:56:29.445Z,14.89
2023-04-23T20:58:57.817Z,14.81
2023-04-23T21:01:25.633Z,14.78
2023-04-23T21:03:53.690Z,14.72
2023-04-23T21:06:21.543Z,14.61
2023-04-23T21:08:48.592Z,14.44
2023-04-23T21:11:17.826Z,14.22
2023-04-23T21:13:45.678Z,13.79
2023-04-23T21:16:12.842Z,13.39
2023-04-23T21:18:40.068Z,13.04
2023-04-23T21:21:07.588Z,12.75
2023-04-23T21:23:34.376Z,12.73
2023-04-23T21:26:01.059Z,12.44
2023-04-23T21:28:27.713Z,12.44
2023-04-23T21:30:56.309Z,12.45
2023-04-23T21:33:24.904Z,12.30
2023-04-23T21:35:53.376Z,12.20
2023-04-23T21:38:20.654Z,12.09
2023-04-23T21:40:47.402Z,12.17
2023-04-23T21:43:13.983Z,12.13
2023-04-23T21:45:40.762Z,12.07
2023-04-23T21:48:07.362Z,11.99
2023-04-23T21:50:34.413Z,11.91
2023-04-23T21:53:04.220Z,11.84
2023-04-23T21:55:31.888Z,11.92
2023-04-23T21:58:09.813Z,11.93
2023-04-23T22:00:44.578Z,11.89
2023-04-23T22:03:11.997Z,11.85
2023-04-23T22:05:40.090Z,11.85
2023-04-23T22:08:09.749Z,11.88
2023-04-23T22:10:42.881Z,11.89
2023-04-23T22:13:10.034Z,11.85
2023-04-23T22:15:37.052Z,11.73
2023-04-23T22:18:03.969Z,11.75
2023-04-23T22:20:30.759Z,11.74
2023-04-23T22:22:57.611Z,11.68
2023-04-23T22:25:24.357Z,11.66
2023-04-23T22:27:50.941Z,11.70
2023-04-23T22:30:17.714Z,11.59
2023-04-23T22:32:44.517Z,11.48
2023-04-23T22:35:11.267Z,11.48
2023-04-23T22:37:38.218Z,11.41
2023-04-23T22:40:05.465Z,11.43
2023-04-23T22:42:32.025Z,11.43
2023-04-23T22:44:58.717Z,11.41
2023-04-23T22:47:25.320Z,11.29
2023-04-23T22:49:52.090Z,11.23
2023-04-23T22:52:18.767Z,11.22
2023-04-23T22:54:45.632Z,11.13
2023-04-23T22:57:12.486Z,11.11
2023-04-23T22:59:40.167Z,11.07
2023-04-23T23:02:07.923Z,11.08
2023-04-23T23:04:37.925Z,11.09
2023-04-23T23:07:08.130Z,11.09
2023-04-23T23:09:34.913Z,11.02
2023-04-23T23:12:03.409Z,11.05
2023-04-23T23:14:31.842Z,11.02
2023-04-23T23:16:59.101Z,11.00
2023-04-23T23:19:27.352Z,11.01
2023-04-23T23:21:53.961Z,11.07
2023-04-23T23:24:21.885Z,11.14
2023-04-23T23:26:48.620Z,11.17
2023-04-23T23:29:15.273Z,11.13
2023-04-23T23:31:42.246Z,11.15
2023-04-23T23:34:08.962Z,11.10
2023-04-23T23:36:35.649Z,11.14
2023-04-23T23:39:02.271Z,11.22
2023-04-23T23:41:28.905Z,11.16
2023-04-23T23:43:55.583Z,11.18
2023-04-23T23:46:22.743Z,11.17
2023-04-23T23:48:49.535Z,11.26
2023-04-23T23:51:16.366Z,11.27
2023-04-23T23:53:43.214Z,11.21
2023-04-23T23:56:09.850Z,11.28
2023-04-23T23:58:36.675Z,11.32
